Time;durP1;ratioP1;P1;durP2;ratioP2;P2;SDS_P1;SDS_P2;PMS_P1;PMS_P2;Temp;Humidity;BMP_temperature;BMP_pressure;BME280_temperature;BME280_humidity;BME280_pressure;Samples;Min_cycle;Max_cycle;Signal;HPM_P1;HPM_P2
2023/10/26 00:03:38;;;;;;;;;;;;;;;;;;;;;
2023/10/26 00:09:04;;;;;;;42.10;30.20;;;;;;;7.79;90.09;97087.88;224379;1294;22598;-82
2023/10/26 00:14:37;;;;;;;;;;;;;;;7.77;89.53;97085.29;224260;1293;22529;-82
2023/10/26 00:19:58;;;;;;;42.50;30.30;;;;;;;7.70;89.26;97089.48;224499;1293;22676;-83
2023/10/26 00:26:05;;;;;;;45.00;31.10;;;;;;;7.63;89.38;97089.59;224479;1292;22559;-82
2023/10/26 00:31:27;;;;;;;43.20;30.10;;;;;;;7.62;89.63;97086.84;224387;1293;22567;-82
2023/10/26 00:36:35;;;;;;;45.60;31.40;;;;;;;7.64;89.61;97076.92;224498;1293;24209;-82
2023/10/26 00:41:56;;;;;;;45.30;32.40;;;;;;;7.65;89.75;97081.70;224416;1293;22571;-82
2023/10/26 00:48:06;;;;;;;43.00;30.20;;;;;;;7.70;89.58;97088.30;224445;1294;22570;-82
2023/10/26 00:53:44;;;;;;;44.80;29.70;;;;;;;7.77;89.09;97078.02;224441;1293;22557;-83
2023/10/26 00:59:02;;;;;;;39.20;27.80;;;;;;;7.84;89.56;97067.59;224340;1293;22616;-84
2023/10/26 01:04:16;;;;;;;41.50;30.40;;;;;;;7.86;89.55;97048.00;224507;1294;25653;-82
2023/10/26 01:10:08;;;;;;;43.90;30.40;;;;;;;7.87;89.61;97030.62;224476;1276;22615;-82
2023/10/26 01:16:11;;;;;;;39.60;29.90;;;;;;;7.92;89.67;97045.03;224473;1293;22571;-84
2023/10/26 01:21:52;;;;;;;38.10;29.20;;;;;;;7.98;89.48;97031.00;224428;1293;22546;-83
2023/10/26 01:27:18;;;;;;;43.40;31.10;;;;;;;8.01;89.90;97018.14;224281;1293;22585;-83
2023/10/26 01:32:47;;;;;;;45.50;32.50;;;;;;;8.00;89.81;97011.48;224236;1289;22597;-82
2023/10/26 01:37:52;;;;;;;46.00;31.40;;;;;;;7.98;90.04;97002.02;224405;1290;24729;-82
2023/10/26 01:42:58;;;;;;;41.40;30.00;;;;;;;8.00;90.18;97001.08;224350;1294;24258;-83
2023/10/26 01:48:06;;;;;;;39.80;28.30;;;;;;;8.02;90.18;96991.34;224042;1292;458744;-84
2023/10/26 01:53:17;;;;;;;49.50;36.00;;;;;;;8.03;90.33;96976.36;224467;1293;22543;-83
2023/10/26 01:58:25;;;;;;;47.80;35.50;;;;;;;8.01;90.27;96957.61;224383;1294;22559;-83
2023/10/26 02:03:49;;;;;;;49.40;36.60;;;;;;;7.94;90.33;96966.21;224344;1270;24285;-83
2023/10/26 02:08:58;;;;;;;46.60;35.10;;;;;;;7.86;90.21;96966.22;224281;1293;22576;-83
2023/10/26 02:14:06;;;;;;;50.30;38.00;;;;;;;7.80;90.60;96962.58;224120;1293;22563;-83
2023/10/26 02:19:16;;;;;;;51.70;40.20;;;;;;;7.75;90.75;96947.44;224260;1294;24291;-83
2023/10/26 02:24:29;;;;;;;56.00;40.20;;;;;;;7.72;90.59;96944.55;224399;1293;22588;-83
2023/10/26 02:29:32;;;;;;;;;;;;;;;7.65;90.20;96940.82;224336;1293;22537;-83
2023/10/26 02:34:45;;;;;;;51.50;39.70;;;;;;;7.58;90.61;96941.88;224400;1294;24241;-82
2023/10/26 02:39:58;;;;;;;51.30;39.20;;;;;;;7.52;90.66;96958.46;224299;1290;22570;-83
2023/10/26 02:45:12;;;;;;;55.00;42.10;;;;;;;7.55;91.02;96970.34;224285;1293;22627;-83
2023/10/26 02:51:08;;;;;;;53.70;40.00;;;;;;;7.68;91.24;96971.13;223838;1296;24252;-83
2023/10/26 02:56:15;;;;;;;53.10;39.10;;;;;;;7.84;91.90;96972.92;223899;1279;24298;-82
2023/10/26 03:01:33;;;;;;;;;;;;;;;;;;;;;
2023/10/26 03:07:08;;;;;;;46.50;35.40;;;;;;;8.17;91.69;96969.85;224014;1296;25430;-83
2023/10/26 03:12:52;;;;;;;37.70;29.10;;;;;;;8.35;91.82;96979.36;223946;1296;22573;-83
2023/10/26 03:18:09;;;;;;;39.50;29.40;;;;;;;8.49;91.75;96984.64;223879;1292;22563;-82
2023/10/26 03:23:17;;;;;;;37.40;29.10;;;;;;;8.59;91.53;96987.30;223885;1296;22573;-83
2023/10/26 03:28:48;;;;;;;36.60;28.60;;;;;;;8.69;91.57;96993.63;224322;1289;22563;-83
2023/10/26 03:34:38;;;;;;;34.60;28.70;;;;;;;8.81;91.75;96975.98;224254;1295;22614;-83
2023/10/26 03:39:56;;;;;;;32.80;26.90;;;;;;;8.90;91.53;96972.43;224124;1295;25888;-83
2023/10/26 03:45:30;;;;;;;;;;;;;;;;;;;;;
2023/10/26 03:51:15;;;;;;;27.90;22.90;;;;;;;9.11;91.80;96957.77;224134;1295;22575;-83
2023/10/26 03:56:38;;;;;;;26.70;22.10;;;;;;;9.20;91.71;96959.44;224265;1295;22964;-83
2023/10/26 04:02:15;;;;;;;;;;;;;;;;;;;;;
2023/10/26 04:07:27;;;;;;;21.70;18.70;;;;;;;9.35;91.78;96878.38;224305;1293;23648;-83
2023/10/26 04:12:35;;;;;;;20.10;17.80;;;;;;;9.43;91.79;96863.98;224392;1292;22593;-83
2023/10/26 04:17:41;;;;;;;19.70;17.50;;;;;;;9.50;91.93;96854.86;224134;1292;22658;-82
2023/10/26 04:23:14;;;;;;;18.40;15.20;;;;;;;9.58;92.12;96838.02;224378;1293;22606;-83
2023/10/26 04:28:33;;;;;;;18.30;14.30;;;;;;;9.70;92.30;96842.23;223854;1296;22572;-83
2023/10/26 04:34:11;;;;;;;19.90;15.70;;;;;;;9.82;92.31;96848.95;223831;1296;22563;-83
2023/10/26 04:39:26;;;;;;;18.60;15.00;;;;;;;9.90;92.20;96846.42;224040;1296;22552;-83
2023/10/26 04:44:32;;;;;;;15.20;13.30;;;;;;;9.96;92.06;96823.54;223953;1296;22570;-83
2023/10/26 04:49:37;;;;;;;9.90;7.60;;;;;;;10.00;91.92;96804.21;223957;1296;22598;-81
2023/10/26 04:54:50;;;;;;;7.70;5.90;;;;;;;10.06;91.81;96804.23;223928;1296;22573;-82
2023/10/26 05:00:08;;;;;;;8.80;6.50;;;;;;;10.14;91.75;96825.65;224072;1294;22574;-82
2023/10/26 05:05:11;;;;;;;8.80;6.50;;;;;;;10.18;91.53;96830.59;224458;1289;22588;-82
2023/10/26 05:10:18;;;;;;;11.80;8.70;;;;;;;10.22;91.50;96826.77;224370;1289;22564;-82
2023/10/26 05:15:47;;;;;;;12.90;9.30;;;;;;;10.22;91.46;96827.13;224404;1293;22727;-82
2023/10/26 05:20:50;;;;;;;13.30;10.10;;;;;;;10.19;91.44;96824.13;224388;1294;22583;-82
2023/10/26 05:25:56;;;;;;;12.30;10.00;;;;;;;10.17;91.60;96826.58;224473;1294;22561;-82
2023/10/26 05:31:06;;;;;;;11.20;9.00;;;;;;;10.16;91.72;96829.19;224293;1292;22561;-82
2023/10/26 05:36:13;;;;;;;11.30;9.40;;;;;;;10.16;91.69;96835.36;224495;1280;22559;-82
2023/10/26 05:41:47;;;;;;;;;;;;;;;;;;;;;
2023/10/26 05:47:51;;;;;;;13.20;11.10;;;;;;;10.19;91.95;96846.17;224154;1292;23580;-83
2023/10/26 05:53:03;;;;;;;13.10;10.40;;;;;;;10.22;91.95;96849.78;223989;1294;22584;-81
2023/10/26 05:58:09;;;;;;;12.50;10.30;;;;;;;10.28;92.06;96852.98;224142;1293;22600;-80
2023/10/26 06:03:29;;;;;;;9.40;7.40;;;;;;;10.33;92.21;96853.58;223787;1276;24292;-83
2023/10/26 06:08:47;;;;;;;11.30;8.50;;;;;;;10.38;92.06;96836.89;223755;1286;22580;-82
2023/10/26 06:14:27;;;;;;;10.40;8.50;;;;;;;10.45;92.00;96835.70;223984;1286;22558;-82
2023/10/26 06:20:00;;;;;;;8.60;7.30;;;;;;;10.52;92.06;96834.15;223200;1289;23500;-84
2023/10/26 06:25:28;;;;;;;11.10;7.40;;;;;;;10.59;91.88;96837.80;223011;1273;24956;-83
2023/10/26 06:30:48;;;;;;;13.50;12.10;;;;;;;10.67;92.00;96841.18;223084;1285;22693;-80
2023/10/26 06:36:02;;;;;;;20.90;18.70;;;;;;;10.76;92.08;96847.75;223458;1278;22586;-76
2023/10/26 06:41:10;;;;;;;14.70;13.20;;;;;;;10.87;92.05;96849.84;222999;1285;23079;-79
2023/10/26 06:46:24;;;;;;;8.70;7.00;;;;;;;10.99;91.87;96844.13;223439;1282;22563;-79
2023/10/26 06:51:33;;;;;;;7.60;5.30;;;;;;;11.10;91.84;96844.64;224067;1283;22602;-80
2023/10/26 06:56:36;;;;;;;5.30;4.50;;;;;;;11.19;91.65;96848.98;224043;1279;22543;-79
2023/10/26 07:01:40;;;;;;;4.70;3.60;;;;;;;11.29;91.61;96848.45;224056;1273;22669;-80
2023/10/26 07:07:13;;;;;;;5.60;4.30;;;;;;;11.40;91.38;96848.52;224104;1286;24474;-85
2023/10/26 07:12:39;;;;;;;6.40;4.00;;;;;;;11.49;91.20;96845.90;223762;1294;22566;-81
2023/10/26 07:18:03;;;;;;;6.30;3.70;;;;;;;11.55;90.97;96848.66;224064;1286;22538;-88
2023/10/26 07:23:14;;;;;;;3.20;2.90;;;;;;;11.63;90.81;96855.44;223697;1286;22592;-75
2023/10/26 07:28:16;;;;;;;4.30;3.10;;;;;;;11.76;90.73;96857.08;223728;1289;25277;-74
2023/10/26 07:33:23;;;;;;;4.90;3.00;;;;;;;11.98;90.94;96859.78;223714;1286;23522;-76
2023/10/26 07:38:28;;;;;;;3.70;2.80;;;;;;;12.38;90.67;96856.11;223946;1286;22621;-82
2023/10/26 07:44:51;;;;;;;;;;;;;;;;;;;;;
2023/10/26 07:50:37;;;;;;;3.10;2.50;;;;;;;12.99;89.16;96857.85;223807;1280;22561;-90
2023/10/26 07:56:20;;;;;;;2.50;2.20;;;;;;;13.10;88.34;96861.96;223285;1298;22731;-90
2023/10/26 08:02:13;;;;;;;2.70;2.00;;;;;;;13.23;88.11;96868.17;222849;1286;22598;-89
2023/10/26 08:07:45;;;;;;;3.10;2.20;;;;;;;13.33;87.22;96870.14;222777;1292;22644;-88
2023/10/26 08:12:52;;;;;;;3.60;3.10;;;;;;;13.35;86.93;96863.61;222798;1295;23141;-74
2023/10/26 08:18:52;;;;;;;4.40;2.80;;;;;;;13.55;86.93;96867.88;222442;1297;22598;-86
2023/10/26 08:24:57;;;;;;;3.50;1.80;;;;;;;13.72;86.29;96864.05;222505;1295;22779;-87
2023/10/26 08:30:16;;;;;;;2.90;2.40;;;;;;;13.63;85.17;96862.94;223539;1292;22585;-89
2023/10/26 08:35:41;;;;;;;3.80;2.10;;;;;;;13.57;84.76;96858.59;223352;1292;22531;-88
2023/10/26 08:41:13;;;;;;;4.10;2.30;;;;;;;13.64;85.04;96862.52;223129;1290;22735;-88
2023/10/26 08:46:22;;;;;;;2.50;1.90;;;;;;;13.66;84.17;96867.35;223055;1297;23643;-81
2023/10/26 08:51:34;;;;;;;2.90;2.10;;;;;;;13.65;84.02;96866.60;223303;1296;26102;-86
2023/10/26 08:56:39;;;;;;;2.50;2.10;;;;;;;13.68;84.37;96866.30;223260;1286;23131;-86
2023/10/26 09:01:52;;;;;;;3.00;2.10;;;;;;;13.79;83.99;96866.97;223222;1295;22599;-85
2023/10/26 09:06:58;;;;;;;2.80;2.10;;;;;;;13.95;84.19;96862.30;223903;1286;22552;-84
2023/10/26 09:12:16;;;;;;;2.00;1.80;;;;;;;14.21;83.54;96868.02;223880;1292;22580;-86
2023/10/26 09:17:41;;;;;;;3.70;2.50;;;;;;;14.43;82.65;96874.73;223434;1292;24427;-86
2023/10/26 09:22:50;;;;;;;2.70;2.00;;;;;;;14.55;81.45;96878.35;223057;1295;22556;-82
2023/10/26 09:28:38;;;;;;;2.90;2.20;;;;;;;14.54;81.11;96886.05;223199;1296;22924;-82
2023/10/26 09:34:43;;;;;;;2.40;2.00;;;;;;;14.48;81.15;96882.00;223448;1292;23008;-83
2023/10/26 09:40:11;;;;;;;2.60;2.00;;;;;;;14.57;81.44;96877.04;223445;1289;22576;-83
2023/10/26 09:46:02;;;;;;;2.70;1.90;;;;;;;14.62;79.40;96884.45;222613;1289;23396;-79
2023/10/26 09:51:10;;;;;;;1.90;1.60;;;;;;;14.48;79.41;96876.20;222991;1292;22736;-82
2023/10/26 09:56:28;;;;;;;2.50;1.30;;;;;;;14.44;79.23;96878.09;223026;1292;23038;-81
2023/10/26 10:01:53;;;;;;;3.30;1.10;;;;;;;14.52;79.05;96870.00;222808;1294;22607;-82
2023/10/26 10:07:03;;;;;;;2.20;1.00;;;;;;;14.67;78.11;96860.27;222925;1292;21830;-79
2023/10/26 10:12:15;;;;;;;0.60;0.60;;;;;;;14.78;77.59;96863.23;222985;1289;22573;-80
2023/10/26 10:17:19;;;;;;;13.90;1.40;;;;;;;14.75;76.20;96845.77;223845;1286;22580;-79
2023/10/26 10:22:58;;;;;;;4.10;0.80;;;;;;;14.89;75.59;96849.75;223823;1273;22566;-80
2023/10/26 10:28:11;;;;;;;4.00;0.80;;;;;;;15.16;75.59;96845.69;223379;1286;22997;-82
2023/10/26 10:33:28;;;;;;;1.10;0.60;;;;;;;15.21;74.60;96843.42;223960;1288;22650;-79
2023/10/26 10:38:32;;;;;;;3.40;0.70;;;;;;;15.30;75.35;96836.67;223872;1286;22549;-79
2023/10/26 10:43:37;;;;;;;1.40;0.60;;;;;;;15.59;74.86;96846.54;223859;1286;22987;-81
2023/10/26 10:49:03;;;;;;;2.40;0.50;;;;;;;15.87;74.37;96844.39;223925;1286;22558;-80
2023/10/26 10:54:11;;;;;;;0.80;0.70;;;;;;;16.01;73.49;96851.70;223836;1270;22555;-80
2023/10/26 10:59:31;;;;;;;2.10;0.80;;;;;;;16.25;73.37;96860.97;223612;1276;23234;-79
2023/10/26 11:04:34;;;;;;;0.70;0.60;;;;;;;16.31;73.14;96855.95;223420;1279;22555;-80
2023/10/26 11:10:18;;;;;;;2.60;1.00;;;;;;;16.24;72.52;96855.91;223527;1271;25423;-79
2023/10/26 11:15:34;;;;;;;1.40;1.20;;;;;;;16.07;72.24;96847.58;223620;1289;22592;-80
2023/10/26 11:20:49;;;;;;;2.50;1.30;;;;;;;15.99;72.24;96846.97;223932;1289;22564;-81
2023/10/26 11:26:19;;;;;;;3.10;2.10;;;;;;;15.79;72.27;96856.80;223809;1286;22549;-80
2023/10/26 11:31:39;;;;;;;3.80;1.60;;;;;;;15.76;72.97;96850.19;223603;1285;22674;-84
2023/10/26 11:36:47;;;;;;;1.60;1.30;;;;;;;15.76;72.81;96860.80;223892;1286;24263;-82
2023/10/26 11:41:54;;;;;;;2.80;1.30;;;;;;;15.58;72.80;96861.61;224001;1282;22668;-83
2023/10/26 11:46:58;;;;;;;0.90;0.70;;;;;;;15.51;73.08;96864.67;223903;1280;22632;-83
2023/10/26 11:52:01;;;;;;;1.80;0.80;;;;;;;15.54;73.34;96857.88;223630;1294;22546;-83
2023/10/26 11:57:07;;;;;;;0.50;0.50;;;;;;;15.59;73.13;96855.27;223940;1273;22599;-84
2023/10/26 12:02:10;;;;;;;1.40;0.70;;;;;;;15.57;72.80;96855.87;223873;1285;22980;-82
2023/10/26 12:07:15;;;;;;;0.80;0.60;;;;;;;15.60;72.69;96852.17;223919;1286;22744;-82
2023/10/26 12:12:25;;;;;;;1.50;0.60;;;;;;;15.59;71.93;96851.60;223915;1289;22571;-82
2023/10/26 12:17:51;;;;;;;;;;;;;;;;;;;;;
2023/10/26 12:23:33;;;;;;;1.40;1.30;;;;;;;15.46;72.67;96850.66;224062;1293;22679;-84
2023/10/26 12:28:44;;;;;;;2.10;1.50;;;;;;;15.46;73.08;96849.80;224012;1291;22701;-85
2023/10/26 12:34:01;;;;;;;2.50;1.60;;;;;;;15.37;73.29;96851.89;224039;1292;22596;-85
2023/10/26 12:39:18;;;;;;;3.00;1.80;;;;;;;15.18;73.47;96854.90;223837;1286;22595;-85
2023/10/26 12:44:47;;;;;;;3.60;1.80;;;;;;;15.01;73.75;96856.64;224010;1286;22598;-85
2023/10/26 12:50:03;;;;;;;;;;;;;;;;;;;;;
2023/10/26 12:55:20;;;;;;;4.60;1.60;;;;;;;14.64;74.30;96866.38;223908;1286;25100;-80
2023/10/26 13:00:35;;;;;;;5.30;2.70;;;;;;;14.50;74.59;96863.25;223986;1292;22606;-80
2023/10/26 13:06:33;;;;;;;3.00;1.50;;;;;;;14.43;74.78;96864.86;223231;1291;22574;-84
2023/10/26 13:11:58;;;;;;;2.10;1.80;;;;;;;14.46;75.10;96867.42;223429;1296;24254;-84
2023/10/26 13:17:07;;;;;;;2.50;1.60;;;;;;;14.57;74.99;96869.54;223227;1292;24632;-82
2023/10/26 13:22:18;;;;;;;3.00;1.40;;;;;;;14.61;74.83;96874.45;223274;1295;22597;-83
2023/10/26 13:27:36;;;;;;;3.60;1.80;;;;;;;14.58;74.67;96877.52;223270;1296;27006;-83
2023/10/26 13:33:04;;;;;;;4.20;2.10;;;;;;;14.54;75.23;96875.33;223390;1292;22562;-81
2023/10/26 13:38:27;;;;;;;2.20;1.70;;;;;;;14.54;75.26;96871.98;223718;1276;22612;-84
2023/10/26 13:43:53;;;;;;;2.90;1.70;;;;;;;14.55;75.14;96863.52;221127;1292;2994827;-80
2023/10/26 13:49:23;;;;;;;3.20;1.80;;;;;;;14.53;75.29;96867.09;223788;1280;24294;-80
2023/10/26 13:54:31;;;;;;;2.20;1.30;;;;;;;14.46;75.45;96863.34;223686;1286;24212;-86
2023/10/26 13:59:45;;;;;;;6.00;2.70;;;;;;;14.37;75.31;96864.81;223204;1291;22640;-80
2023/10/26 14:05:00;;;;;;;3.40;1.80;;;;;;;14.30;75.41;96866.09;223358;1294;22578;-83
2023/10/26 14:10:15;;;;;;;4.10;2.40;;;;;;;14.22;75.51;96864.26;223642;1283;22720;-81
2023/10/26 14:15:24;;;;;;;2.40;1.80;;;;;;;14.14;75.65;96869.63;224113;1292;22559;-82
2023/10/26 14:20:34;;;;;;;2.30;1.60;;;;;;;14.06;75.63;96874.91;224044;1292;22588;-82
2023/10/26 14:25:47;;;;;;;3.10;1.90;;;;;;;13.98;75.72;96877.23;223427;1294;22583;-80
2023/10/26 14:30:52;;;;;;;4.30;2.50;;;;;;;13.93;75.84;96880.41;223963;1294;23174;-80
2023/10/26 14:35:56;;;;;;;4.10;2.10;;;;;;;13.88;75.79;96888.01;224248;1294;22578;-82
2023/10/26 14:41:01;;;;;;;3.30;2.30;;;;;;;13.84;76.15;96885.10;224366;1286;22599;-81
2023/10/26 14:46:31;;;;;;;;;;;;;;;;;;;;;
2023/10/26 14:52:22;;;;;;;5.40;2.90;;;;;;;13.78;76.62;96896.54;224215;1294;22556;-80
2023/10/26 14:57:56;;;;;;;4.30;2.70;;;;;;;13.71;76.88;96900.41;224326;1294;24247;-81
2023/10/26 15:02:59;;;;;;;6.60;3.00;;;;;;;13.68;76.76;96897.09;224428;1291;22574;-80
2023/10/26 15:08:55;;;;;;;3.70;2.30;;;;;;;13.63;76.84;96899.14;224205;1294;22566;-80
2023/10/26 15:14:06;;;;;;;3.70;2.70;;;;;;;13.62;76.83;96898.44;223497;1292;23091;-80
2023/10/26 15:19:46;;;;;;;5.40;3.10;;;;;;;13.60;76.79;96904.27;223296;1297;22611;-80
2023/10/26 15:25:27;;;;;;;4.60;2.60;;;;;;;13.57;77.02;96912.50;223158;1297;22564;-81
2023/10/26 15:31:11;;;;;;;5.20;3.60;;;;;;;13.52;76.90;96913.48;223592;1297;22571;-81
2023/10/26 15:36:30;;;;;;;6.00;3.60;;;;;;;13.46;76.90;96907.05;223179;1297;22563;-81
2023/10/26 15:41:47;;;;;;;5.30;3.60;;;;;;;13.41;77.03;96906.95;223500;1292;24277;-81
2023/10/26 15:46:57;;;;;;;6.50;3.80;;;;;;;13.38;76.95;96914.29;224105;1294;22760;-80
2023/10/26 15:52:51;;;;;;;6.90;3.60;;;;;;;13.35;77.22;96917.68;224350;1294;22569;-81
2023/10/26 15:58:11;;;;;;;6.10;3.80;;;;;;;13.35;77.13;96924.85;224365;1294;22607;-81
2023/10/26 16:03:32;;;;;;;6.30;3.80;;;;;;;13.32;77.28;96930.44;224361;1292;22554;-81
2023/10/26 16:08:40;;;;;;;6.20;4.10;;;;;;;13.29;77.16;96934.23;224139;1292;25507;-81
2023/10/26 16:13:47;;;;;;;7.70;4.70;;;;;;;13.26;77.10;96939.54;224007;1294;23075;-80
2023/10/26 16:19:09;;;;;;;6.00;4.00;;;;;;;13.21;77.36;96942.98;224134;1294;23005;-80
2023/10/26 16:24:19;;;;;;;8.60;5.20;;;;;;;13.16;77.20;96944.38;224242;1285;22567;-80
2023/10/26 16:29:38;;;;;;;7.20;4.80;;;;;;;13.13;77.63;96941.35;224127;1271;22598;-81
2023/10/26 16:34:55;;;;;;;7.60;4.90;;;;;;;13.10;77.99;96940.88;224164;1292;22562;-80
2023/10/26 16:40:06;;;;;;;7.60;4.90;;;;;;;13.05;77.93;96937.66;224144;1289;22588;-80
2023/10/26 16:45:17;;;;;;;8.80;5.50;;;;;;;12.99;78.05;96929.00;224167;1294;22563;-80
2023/10/26 16:50:34;;;;;;;10.80;6.80;;;;;;;12.91;78.20;96924.13;224107;1294;22631;-80
2023/10/26 16:56:26;;;;;;;13.10;7.00;;;;;;;12.80;77.98;96928.40;224377;1292;22578;-82
2023/10/26 17:01:34;;;;;;;13.00;7.20;;;;;;;12.62;78.34;96926.70;223606;1296;22559;-80
2023/10/26 17:07:12;;;;;;;13.50;8.10;;;;;;;12.44;78.25;96925.48;223804;1296;22743;-81
2023/10/26 17:12:32;;;;;;;13.40;7.40;;;;;;;12.23;78.34;96926.41;223834;1295;22723;-81
2023/10/26 17:18:10;;;;;;;10.50;6.60;;;;;;;12.05;78.89;96924.71;223484;1288;23309;-81
2023/10/26 17:23:28;;;;;;;7.80;5.00;;;;;;;11.88;79.07;96917.96;223964;1296;22674;-81
2023/10/26 17:28:39;;;;;;;9.30;5.50;;;;;;;11.74;79.31;96915.34;223849;1292;25310;-80
2023/10/26 17:33:44;;;;;;;10.20;7.10;;;;;;;11.62;79.65;96902.83;224098;1294;22591;-80
2023/10/26 17:38:53;;;;;;;10.60;7.10;;;;;;;11.57;80.02;96912.69;224204;1292;22682;-80
2023/10/26 17:44:04;;;;;;;9.50;6.10;;;;;;;11.56;80.19;96914.23;224170;1277;22651;-81
2023/10/26 17:49:32;;;;;;;;;;;;;;;;;;;;;
2023/10/26 17:54:49;;;;;;;15.00;9.20;;;;;;;11.58;80.54;96914.66;224185;1294;24240;-81
2023/10/26 18:00:07;;;;;;;16.60;10.20;;;;;;;11.59;80.65;96912.77;224126;1294;22565;-81
2023/10/26 18:05:42;;;;;;;14.90;9.50;;;;;;;11.62;80.74;96913.66;224334;1294;22592;-80
2023/10/26 18:10:53;;;;;;;15.80;9.90;;;;;;;11.64;80.87;96909.84;224144;1292;22673;-81
2023/10/26 18:16:07;;;;;;;16.70;10.20;;;;;;;11.64;80.88;96905.02;224296;1293;22593;-81
2023/10/26 18:21:19;;;;;;;16.80;11.00;;;;;;;11.61;80.93;96904.39;224370;1292;22563;-81
2023/10/26 18:26:33;;;;;;;17.20;11.30;;;;;;;11.59;81.05;96912.70;224412;1294;24275;-81
2023/10/26 18:31:41;;;;;;;16.90;10.10;;;;;;;11.57;81.00;96909.31;224190;1292;23300;-81
2023/10/26 18:36:44;;;;;;;16.90;9.90;;;;;;;11.55;81.16;96909.55;224223;1292;22581;-81
2023/10/26 18:41:54;;;;;;;15.30;10.20;;;;;;;11.54;81.42;96919.67;224188;1294;24278;-81
2023/10/26 18:47:13;;;;;;;15.20;10.20;;;;;;;11.53;81.34;96911.56;224350;1289;25312;-81
2023/10/26 18:52:37;;;;;;;17.00;10.50;;;;;;;11.48;81.49;96912.33;224360;1293;22664;-81
2023/10/26 18:57:46;;;;;;;15.60;10.30;;;;;;;11.40;81.57;96912.04;224408;1293;25394;-81
2023/10/26 19:03:23;;;;;;;16.90;10.40;;;;;;;11.35;81.74;96915.85;224372;1293;22566;-81
2023/10/26 19:08:47;;;;;;;16.10;10.50;;;;;;;11.28;81.77;96922.51;224383;1294;22585;-81
2023/10/26 19:14:17;;;;;;;17.50;11.30;;;;;;;11.21;81.87;96917.17;224242;1292;22575;-81
2023/10/26 19:19:43;;;;;;;19.00;11.80;;;;;;;11.12;82.04;96898.81;224390;1286;22554;-81
2023/10/26 19:25:12;;;;;;;17.60;11.40;;;;;;;11.01;82.24;96896.44;224351;1292;24240;-80
2023/10/26 19:30:25;;;;;;;18.60;12.30;;;;;;;10.90;82.49;96907.40;224217;1293;22567;-81
2023/10/26 19:36:24;;;;;;;17.60;11.30;;;;;;;10.84;82.69;96916.47;223551;1283;22573;-81
2023/10/26 19:41:50;;;;;;;16.00;10.40;;;;;;;10.83;82.78;96919.57;223627;1297;22569;-81
2023/10/26 19:46:54;;;;;;;18.90;10.60;;;;;;;10.83;82.82;96913.91;223337;1293;22570;-80
2023/10/26 19:52:17;;;;;;;16.00;9.90;;;;;;;10.83;82.89;96913.17;223421;1297;22593;-80
2023/10/26 19:57:41;;;;;;;18.30;11.00;;;;;;;10.80;82.56;96917.14;222602;1300;22592;-80
2023/10/26 20:03:10;;;;;;;18.50;11.20;;;;;;;10.78;82.62;96919.97;222609;1300;22793;-81
2023/10/26 20:08:18;;;;;;;15.50;10.30;;;;;;;10.79;82.88;96924.75;222110;1303;22570;-81
2023/10/26 20:13:40;;;;;;;17.10;11.30;;;;;;;10.79;82.79;96920.29;222058;1286;22586;-81
2023/10/26 20:19:10;;;;;;;;;;;;;;;;;;;;;
2023/10/26 20:24:51;;;;;;;;;;;;;;;;;;;;;
2023/10/26 20:30:24;;;;;;;19.70;12.40;;;;;;;10.77;82.93;96928.97;223954;1295;22562;-80
2023/10/26 20:36:27;;;;;;;21.20;11.30;;;;;;;10.75;83.16;96944.09;223951;1294;22593;-81
2023/10/26 20:42:02;;;;;;;;;;;;;;;;;;;;;
2023/10/26 20:47:23;;;;;;;12.30;7.90;;;;;;;10.96;83.48;96937.64;224121;1294;22567;-81
2023/10/26 20:52:34;;;;;;;12.00;7.20;;;;;;;11.11;83.45;96937.16;224111;1294;22680;-81
2023/10/26 20:57:46;;;;;;;11.40;7.20;;;;;;;11.22;83.42;96942.23;223848;1294;22571;-81
2023/10/26 21:03:49;;;;;;;9.50;6.40;;;;;;;11.31;83.10;96938.46;223998;1270;22563;-81
2023/10/26 21:09:19;;;;;;;11.40;7.70;;;;;;;11.37;82.95;96933.77;224356;1294;22559;-80
2023/10/26 21:14:35;;;;;;;11.20;7.70;;;;;;;11.41;82.94;96934.32;223823;1293;22578;-81
2023/10/26 21:20:11;;;;;;;;;;;;;;;;;;;;;
2023/10/26 21:25:15;;;;;;;12.30;7.20;;;;;;;11.43;82.70;96933.65;224370;1292;22590;-81
2023/10/26 21:31:10;;;;;;;12.80;7.00;;;;;;;11.44;82.74;96920.59;223521;1297;22585;-81
2023/10/26 21:37:14;;;;;;;;;;;;;;;;;;;;;
2023/10/26 21:42:57;;;;;;;11.80;7.60;;;;;;;11.45;82.72;96912.69;223601;1295;24288;-81
2023/10/26 21:48:28;;;;;;;12.00;7.70;;;;;;;11.45;82.69;96907.40;223465;1295;24273;-81
2023/10/26 21:54:08;;;;;;;11.40;7.80;;;;;;;11.46;82.75;96911.18;223642;1297;22999;-80
2023/10/26 21:59:51;;;;;;;13.50;7.70;;;;;;;11.47;82.72;96911.98;223490;1284;22574;-80
2023/10/26 22:05:50;;;;;;;13.90;8.50;;;;;;;11.49;82.78;96911.13;223502;1297;22651;-80
2023/10/26 22:12:00;;;;;;;14.10;8.40;;;;;;;11.50;82.89;96903.64;223125;1298;22622;-81
2023/10/26 22:17:37;;;;;;;12.00;8.00;;;;;;;11.50;82.90;96902.42;222958;1290;22575;-81
2023/10/26 22:23:27;;;;;;;13.90;7.80;;;;;;;11.51;83.09;96902.77;223035;1298;25281;-80
2023/10/26 22:28:43;;;;;;;12.40;7.50;;;;;;;11.50;82.89;96900.03;222990;1292;22562;-81
2023/10/26 22:41:07;;;;;;;11.70;7.60;;;;;;;11.50;82.99;96894.21;224406;1291;22570;-81
2023/10/26 22:47:10;;;;;;;;;;;;;;;;;;;;;
2023/10/26 22:53:28;;;;;;;;;;;;;;;;;;;;;
2023/10/26 22:59:32;;;;;;;11.80;7.10;;;;;;;11.35;83.23;96868.91;224134;1292;26002;-81
2023/10/26 23:05:42;;;;;;;;;;;;;;;;;;;;;
2023/10/26 23:12:15;;;;;;;12.90;8.50;;;;;;;11.12;83.17;96867.77;224321;1292;22580;-81
2023/10/26 23:17:58;;;;;;;12.10;8.00;;;;;;;11.06;83.24;96852.66;224402;1292;22596;-81
2023/10/26 23:23:36;;;;;;;8.60;6.80;;;;;;;11.06;83.50;96839.20;224401;1291;22600;-81
2023/10/26 23:29:30;;;;;;;10.30;7.00;;;;;;;11.05;83.74;96831.88;224261;1288;22556;-80
2023/10/26 23:35:40;;;;;;;;;;;;;;;;;;;;;
2023/10/26 23:41:54;;;;;;;;;;;;;;;;;;;;;
2023/10/26 23:48:12;;;;;;;15.80;9.50;;;;;;;10.77;83.71;96822.51;224390;1293;22572;-80
2023/10/26 23:53:25;;;;;;;;;;;;;;;;;;;;;
2023/10/26 23:59:45;;;;;;;;;;;;;;;;;;;;;
